Terminal Aerodrome Forecast
Issued by NWS

Home | Current Version | Previous Version | Graphics & Text | Print | Product List | Glossary On
Versions: 1 2 3 4 5 6 7 8 9 10 11 12 13 14 15 16 17 18 19 20 21
000
FTUS43 KBIS 291139
TAFMOT
TAF
KMOT 291139Z 2912/3012 26008KT P6SM SCT120
     FM291500 31010KT P6SM SCT120
     FM292200 01008KT P6SM SCT060
     FM300200 06005KT P6SM SCT060
     FM300600 12005KT P6SM BKN100=

USA.gov is the U.S. government's official web portal to all federal, state and local government web resources and services.